Time;durP1;ratioP1;P1;durP2;ratioP2;P2;SDS_P1;SDS_P2;PMS_P1;PMS_P2;Temp;Humidity;BMP_temperature;BMP_pressure;BME280_temperature;BME280_humidity;BME280_pressure;Samples;Min_cycle;Max_cycle;Signal;HPM_P1;HPM_P2
2022/03/11 00:12:52;;;;;;;;;;;;;;;10.89;33.14;101714.66;5000749;28;20518;-63
2022/03/11 00:15:20;;;;;;;17.60;8.18;;;;;;;10.90;33.14;101707.47;5014627;28;19921;-62
2022/03/11 00:17:47;;;;;;;12.93;8.35;;;;;;;10.87;33.15;101707.63;5014538;28;20042;-64
2022/03/11 00:20:58;;;;;;;12.75;7.95;;;;;;;10.80;33.31;101705.31;5015203;28;20113;-62
2022/03/11 00:23:25;;;;;;;11.57;8.07;;;;;;;10.77;33.43;101700.13;5015052;28;20543;-62
2022/03/11 00:29:45;;;;;;;12.48;8.43;;;;;;;10.61;33.47;101701.97;4978205;28;20142;-62
2022/03/11 00:32:11;;;;;;;10.77;7.97;;;;;;;10.56;33.57;101698.66;5003553;28;20053;-62
2022/03/11 00:35:37;;;;;;;10.40;7.78;;;;;;;10.53;33.72;101698.84;5014423;28;20046;-64
2022/03/11 00:38:08;;;;;;;11.65;8.93;;;;;;;10.53;33.77;101696.16;5014366;28;20038;-63
2022/03/11 00:40:35;;;;;;;12.32;8.10;;;;;;;10.52;33.77;101699.81;5014186;28;20080;-62
2022/03/11 00:43:03;;;;;;;12.35;7.57;;;;;;;10.51;33.92;101695.38;5014488;28;20060;-61
2022/03/11 00:48:35;;;;;;;14.82;8.68;;;;;;;10.53;33.95;101687.25;4998756;28;20141;-62
2022/03/11 00:51:02;;;;;;;12.48;8.57;;;;;;;10.56;33.90;101695.13;5014155;28;20122;-62
2022/03/11 00:57:29;;;;;;;12.68;8.27;;;;;;;10.65;33.79;101692.78;4695165;26;20045;-61
2022/03/11 00:59:55;;;;;;;12.02;8.48;;;;;;;10.67;33.99;101688.16;5014411;28;20128;-63
2022/03/11 01:02:22;;;;;;;13.30;8.60;;;;;;;10.67;33.99;101688.16;5014194;28;20140;-62
2022/03/11 01:04:50;;;;;;;13.52;8.93;;;;;;;10.66;34.03;101689.13;5013814;28;20045;-64
2022/03/11 01:07:35;;;;;;;15.52;8.93;;;;;;;10.64;33.96;101680.28;5026854;28;20068;-63
2022/03/11 01:10:04;;;;;;;10.95;7.85;;;;;;;10.65;33.96;101678.47;5013700;28;20477;-64
2022/03/11 01:12:52;;;;;;;15.30;9.05;;;;;;;10.66;33.75;101680.19;5014459;28;20070;-63
2022/03/11 01:15:19;;;;;;;14.07;8.73;;;;;;;10.66;33.91;101670.31;5013824;28;20121;-63
2022/03/11 01:17:47;;;;;;;11.15;8.52;;;;;;;10.67;33.76;101669.38;5012368;28;20064;-63
2022/03/11 01:20:14;;;;;;;12.52;8.75;;;;;;;10.69;33.98;101664.78;5013899;28;20133;-63
2022/03/11 01:22:48;;;;;;;15.50;8.82;;;;;;;10.71;33.92;101668.22;5014245;28;20400;-64
2022/03/11 01:25:34;;;;;;;11.30;7.88;;;;;;;10.70;33.84;101662.94;4995928;28;20065;-63
2022/03/11 01:31:31;;;;;;;12.10;8.30;;;;;;;10.67;34.20;101655.06;5004122;28;20176;-63
2022/03/11 01:34:48;;;;;;;13.35;8.32;;;;;;;10.65;33.82;101652.47;4982735;28;20136;-63
2022/03/11 01:37:53;;;;;;;11.68;8.07;;;;;;;10.64;34.03;101644.50;4976894;28;20069;-65
2022/03/11 01:40:59;;;;;;;15.55;8.95;;;;;;;10.60;33.88;101645.63;4991454;28;20139;-63
2022/03/11 01:43:51;;;;;;;13.63;8.57;;;;;;;10.55;34.00;101643.22;5013793;28;20040;-65
2022/03/11 01:46:18;;;;;;;12.25;8.35;;;;;;;10.53;33.97;101637.06;4996962;28;20061;-63
2022/03/11 01:48:45;;;;;;;14.20;9.32;;;;;;;10.48;33.90;101631.09;5013121;28;20136;-63
2022/03/11 01:51:12;;;;;;;12.93;9.13;;;;;;;10.43;33.95;101623.31;5011283;28;20572;-64
2022/03/11 01:54:09;;;;;;;13.98;8.95;;;;;;;10.40;34.08;101625.28;5013919;28;20121;-63
2022/03/11 01:57:50;;;;;;;;;;;;;;;;;;;;;
2022/03/11 02:01:04;;;;;;;13.48;9.05;;;;;;;10.33;34.01;101619.41;4915549;29;20044;-64
2022/03/11 02:03:40;;;;;;;12.85;8.48;;;;;;;10.30;34.11;101606.16;4930091;29;20434;-64
2022/03/11 02:06:08;;;;;;;14.52;9.15;;;;;;;10.30;33.95;101605.28;4914886;29;20055;-63
2022/03/11 02:08:36;;;;;;;12.23;8.40;;;;;;;10.25;34.15;101602.00;4914769;29;20052;-63
2022/03/11 02:11:03;;;;;;;13.38;8.88;;;;;;;10.22;34.17;101603.03;4914703;29;20060;-64
2022/03/11 02:14:01;;;;;;;13.00;8.70;;;;;;;10.18;34.37;101599.66;4928488;29;20502;-64
2022/03/11 02:16:33;;;;;;;14.23;8.77;;;;;;;10.18;34.35;101593.41;4931996;29;20079;-64
2022/03/11 02:19:00;;;;;;;12.27;8.55;;;;;;;10.15;34.34;101586.41;4918249;29;20044;-64
2022/03/11 02:21:27;;;;;;;12.85;8.80;;;;;;;10.14;34.33;101584.66;4914769;29;20052;-64
2022/03/11 02:31:29;;;;;;;12.73;8.38;;;;;;;9.96;34.42;101577.66;4920884;29;20048;-63
2022/03/11 02:33:58;;;;;;;11.77;8.27;;;;;;;9.93;34.49;101568.94;4960142;28;20534;-64
2022/03/11 02:41:43;;;;;;;13.18;8.15;;;;;;;9.90;34.56;101569.09;5077063;22;20049;-60
2022/03/11 02:44:10;;;;;;;12.85;8.35;;;;;;;9.90;34.63;101566.41;5034788;28;20140;-65
2022/03/11 02:46:36;;;;;;;11.10;7.90;;;;;;;9.88;34.60;101562.00;5036630;28;20128;-64
2022/03/11 02:49:03;;;;;;;13.82;8.27;;;;;;;9.87;34.68;101562.09;5036164;28;20478;-64
2022/03/11 02:55:09;;;;;;;10.85;7.38;;;;;;;9.83;34.74;101556.03;5039888;28;20506;-66
2022/03/11 02:57:40;;;;;;;11.30;7.47;;;;;;;9.80;34.62;101544.63;5042278;28;20053;-64
2022/03/11 03:04:28;;;;;;;11.15;7.22;;;;;;;9.74;34.83;101550.34;5036092;28;20042;-62
2022/03/11 03:06:55;;;;;;;11.80;7.50;;;;;;;9.70;34.93;101556.81;5036059;28;20044;-62
2022/03/11 03:09:21;;;;;;;11.82;7.90;;;;;;;9.67;34.92;101547.13;5035591;28;20067;-62
2022/03/11 03:11:48;;;;;;;10.45;7.50;;;;;;;9.67;35.04;101551.63;5024192;28;20455;-63
2022/03/11 03:14:14;;;;;;;12.98;7.72;;;;;;;9.69;34.98;101547.03;5036133;28;20391;-62
2022/03/11 03:16:41;;;;;;;10.73;8.07;;;;;;;9.69;35.04;101545.22;5034738;28;20046;-61
2022/03/11 03:32:46;;;;;;;12.07;7.88;;;;;;;9.59;35.05;101549.34;5041709;28;20044;-62
2022/03/11 03:35:13;;;;;;;15.32;7.40;;;;;;;9.59;35.10;101537.75;5035563;28;20064;-62
2022/03/11 03:37:40;;;;;;;10.90;7.75;;;;;;;9.57;35.27;101536.03;5040576;28;20124;-62
2022/03/11 03:40:08;;;;;;;12.43;7.35;;;;;;;9.56;35.23;101534.28;5052817;28;20072;-62
2022/03/11 03:43:03;;;;;;;12.40;7.15;;;;;;;9.53;35.23;101531.78;5029950;28;20041;-63
2022/03/11 03:45:31;;;;;;;12.70;7.72;;;;;;;9.55;35.21;101539.75;5035518;28;20483;-64
2022/03/11 03:51:08;;;;;;;14.98;7.85;;;;;;;9.53;35.13;101530.91;5035317;28;20377;-63
2022/03/11 03:53:35;;;;;;;11.27;7.20;;;;;;;9.53;35.25;101533.59;5039895;28;20510;-62
2022/03/11 03:56:31;;;;;;;12.32;7.55;;;;;;;9.53;35.26;101533.59;5055158;28;20041;-62
2022/03/11 04:02:53;;;;;;;12.60;6.88;;;;;;;9.55;35.41;101535.25;4934274;29;20059;-61
2022/03/11 04:14:38;;;;;;;12.93;7.18;;;;;;;9.49;35.35;101515.94;5055760;28;20179;-63
2022/03/11 04:17:05;;;;;;;13.70;7.35;;;;;;;9.50;35.37;101513.19;5035642;28;20073;-64
2022/03/11 04:19:32;;;;;;;10.70;7.15;;;;;;;9.51;35.38;101514.03;5040981;28;20049;-64
2022/03/11 04:21:59;;;;;;;9.50;6.70;;;;;;;9.51;35.44;101522.94;5054825;28;20132;-64
2022/03/11 04:24:29;;;;;;;15.00;7.40;;;;;;;9.51;35.49;101517.59;5049944;28;20587;-62
2022/03/11 04:26:59;;;;;;;12.70;7.30;;;;;;;9.52;35.58;101515.78;5054789;28;20033;-62
2022/03/11 04:36:43;;;;;;;10.73;7.22;;;;;;;9.56;35.56;101520.88;4967880;28;20073;-63
2022/03/11 04:43:10;;;;;;;11.25;7.20;;;;;;;9.58;35.62;101520.78;5029245;28;20492;-64
2022/03/11 04:45:43;;;;;;;13.25;7.35;;;;;;;9.60;35.63;101509.97;5035374;28;20408;-62
2022/03/11 04:48:10;;;;;;;10.10;6.85;;;;;;;9.62;35.65;101505.41;5039310;28;20132;-61
2022/03/11 04:50:36;;;;;;;12.18;7.63;;;;;;;9.65;35.66;101515.94;5054107;28;20040;-61
2022/03/11 04:53:43;;;;;;;10.93;6.53;;;;;;;9.65;35.79;101507.91;5036261;28;20045;-64
2022/03/11 04:56:11;;;;;;;10.60;7.25;;;;;;;9.66;35.71;101507.84;5052198;28;20068;-62
2022/03/11 04:58:37;;;;;;;11.05;7.50;;;;;;;9.66;35.85;101515.91;5053615;28;20045;-61
2022/03/11 05:07:07;;;;;;;10.82;7.78;;;;;;;9.69;35.93;101509.50;4992782;28;20072;-62
2022/03/11 05:09:34;;;;;;;11.82;7.68;;;;;;;9.69;35.86;101515.72;5036523;28;20561;-62
2022/03/11 05:12:00;;;;;;;11.18;7.53;;;;;;;9.70;35.92;101505.84;5053150;28;20060;-63
2022/03/11 05:21:20;;;;;;;14.80;8.02;;;;;;;9.68;35.86;101500.59;5053034;28;20056;-63
2022/03/11 05:23:47;;;;;;;12.50;7.97;;;;;;;9.66;36.13;101498.91;5053354;28;20053;-62
2022/03/11 05:26:25;;;;;;;12.30;7.60;;;;;;;9.66;36.15;101502.47;5053156;28;20411;-62
2022/03/11 05:28:53;;;;;;;11.73;7.70;;;;;;;9.66;36.21;101499.81;5049371;28;20040;-62
2022/03/11 05:31:20;;;;;;;11.90;8.23;;;;;;;9.66;36.20;101497.13;5052541;28;20041;-63
2022/03/11 05:33:48;;;;;;;10.48;7.35;;;;;;;9.67;36.32;101495.31;5053373;28;20044;-62
2022/03/11 05:36:16;;;;;;;11.85;7.60;;;;;;;9.67;36.32;101487.25;5035196;28;20095;-62
2022/03/11 05:38:43;;;;;;;11.80;7.45;;;;;;;9.66;36.36;101486.41;5053109;28;20047;-63
2022/03/11 05:41:25;;;;;;;9.98;7.90;;;;;;;9.67;36.25;101482.75;5033924;28;20041;-63
2022/03/11 05:44:07;;;;;;;12.98;7.45;;;;;;;9.69;36.37;101491.59;5035802;28;20526;-63
2022/03/11 05:47:02;;;;;;;10.60;7.53;;;;;;;9.69;36.27;101491.59;5028324;28;20053;-62
2022/03/11 05:49:29;;;;;;;13.57;8.00;;;;;;;9.69;36.35;101485.34;5036065;28;20087;-62
2022/03/11 05:51:59;;;;;;;11.32;8.18;;;;;;;9.69;36.43;101482.66;5018357;28;20041;-62
2022/03/11 05:54:39;;;;;;;11.77;7.97;;;;;;;9.68;36.36;101489.00;5020003;28;20136;-62
2022/03/11 05:58:20;;;;;;;13.65;8.15;;;;;;;9.65;36.65;101489.13;5001870;28;20080;-63
2022/03/11 06:00:49;;;;;;;12.65;8.00;;;;;;;9.64;36.53;101490.09;5049198;28;20037;-64
2022/03/11 06:03:17;;;;;;;11.85;7.57;;;;;;;9.63;36.66;101485.66;5036749;28;20064;-66
2022/03/11 06:05:45;;;;;;;12.55;7.70;;;;;;;9.61;36.71;101477.72;5059648;28;20048;-62
2022/03/11 06:08:12;;;;;;;12.80;8.00;;;;;;;9.62;36.67;101471.41;5059239;28;20056;-62
2022/03/11 06:10:38;;;;;;;11.18;8.15;;;;;;;9.63;36.65;101478.50;5058672;28;20517;-63
2022/03/11 06:13:05;;;;;;;15.55;8.60;;;;;;;9.64;36.72;101474.00;5059221;28;20040;-63
2022/03/11 06:15:32;;;;;;;12.23;8.18;;;;;;;9.65;36.67;101467.69;5059767;28;20116;-63
2022/03/11 06:17:59;;;;;;;13.65;9.13;;;;;;;9.66;36.72;101470.31;5059176;28;20048;-62
2022/03/11 06:20:29;;;;;;;13.70;8.57;;;;;;;9.67;36.68;101473.84;5042119;28;20495;-63
2022/03/11 06:22:56;;;;;;;10.68;7.75;;;;;;;9.68;36.80;101467.53;5059592;28;20124;-63
2022/03/11 06:25:22;;;;;;;11.80;7.88;;;;;;;9.69;36.81;101478.16;5059421;28;20068;-62
2022/03/11 06:27:49;;;;;;;12.02;8.20;;;;;;;9.69;36.81;101470.13;5058935;28;20044;-63
2022/03/11 06:30:16;;;;;;;15.93;8.70;;;;;;;9.71;36.90;101470.91;5059274;28;20040;-62
2022/03/11 06:32:44;;;;;;;13.95;8.55;;;;;;;9.71;36.79;101468.22;5062435;28;20091;-62
2022/03/11 06:35:13;;;;;;;14.40;8.80;;;;;;;9.74;36.89;101475.22;5063175;28;20105;-63
2022/03/11 06:38:03;;;;;;;12.25;8.73;;;;;;;9.75;36.90;101475.13;5041372;28;20082;-64
2022/03/11 06:41:05;;;;;;;11.50;8.18;;;;;;;9.76;36.87;101476.88;5041849;28;20045;-62
2022/03/11 06:43:31;;;;;;;17.88;8.63;;;;;;;9.77;36.90;101469.69;5059116;28;20048;-62
2022/03/11 06:45:58;;;;;;;18.95;9.07;;;;;;;9.77;37.01;101467.88;5040969;28;20140;-63
2022/03/11 06:48:27;;;;;;;16.50;8.60;;;;;;;9.78;36.97;101483.00;5037847;28;20065;-63
2022/03/11 06:50:54;;;;;;;12.90;8.95;;;;;;;9.81;36.85;101476.59;5053390;28;20045;-62
2022/03/11 06:53:26;;;;;;;17.17;9.55;;;;;;;9.81;37.03;101488.19;5058996;28;20041;-62
2022/03/11 06:55:53;;;;;;;14.95;9.27;;;;;;;9.84;37.19;101501.44;5058866;28;20091;-64
2022/03/11 06:58:21;;;;;;;14.55;9.00;;;;;;;9.86;37.07;101491.47;5059126;28;20045;-62
2022/03/11 07:00:48;;;;;;;13.27;8.27;;;;;;;9.88;37.26;101497.63;5058782;28;20060;-63
2022/03/11 07:03:14;;;;;;;17.27;9.68;;;;;;;9.91;37.20;101484.97;5059426;28;20055;-63
2022/03/11 07:05:41;;;;;;;16.73;9.25;;;;;;;9.94;37.25;101488.34;5058963;28;20045;-62
2022/03/11 07:08:10;;;;;;;14.98;9.23;;;;;;;9.98;37.24;101478.31;5058884;28;20032;-63
2022/03/11 07:10:43;;;;;;;12.27;8.82;;;;;;;10.02;37.24;101479.84;5058386;28;20076;-65
2022/03/11 07:13:11;;;;;;;12.65;8.95;;;;;;;10.09;37.22;101484.75;5059103;28;20045;-63
2022/03/11 07:15:38;;;;;;;14.40;9.20;;;;;;;10.17;37.29;101479.81;5038300;28;20503;-63
2022/03/11 07:18:05;;;;;;;17.80;9.90;;;;;;;10.24;37.22;101484.84;5021102;28;20037;-63
2022/03/11 07:20:32;;;;;;;15.02;9.45;;;;;;;10.32;37.26;101477.19;5021364;28;20074;-63
2022/03/11 07:23:18;;;;;;;15.27;9.30;;;;;;;10.42;37.17;101473.03;5056069;28;20375;-63
2022/03/11 07:25:45;;;;;;;14.60;9.75;;;;;;;10.52;37.12;101476.03;5055548;28;20487;-63
2022/03/11 07:28:12;;;;;;;17.23;9.70;;;;;;;10.62;37.22;101483.44;5055658;28;20406;-64
2022/03/11 07:30:43;;;;;;;14.07;9.70;;;;;;;10.73;37.08;101475.56;5055521;28;20128;-63
2022/03/11 07:33:11;;;;;;;13.35;9.15;;;;;;;10.85;37.00;101475.78;5055593;28;20033;-63
2022/03/11 07:35:38;;;;;;;16.30;10.40;;;;;;;10.94;36.86;101470.69;5037828;28;20049;-62
2022/03/11 07:38:06;;;;;;;15.65;10.50;;;;;;;11.02;36.90;101467.50;5054851;28;20096;-64
2022/03/11 07:40:33;;;;;;;15.32;10.07;;;;;;;11.12;36.98;101480.28;5055242;28;20036;-63
2022/03/11 07:43:00;;;;;;;21.00;9.80;;;;;;;11.23;36.49;101482.31;5055434;28;20041;-63
2022/03/11 07:45:27;;;;;;;15.60;10.02;;;;;;;11.33;36.54;101469.16;5037608;28;20045;-63
2022/03/11 07:47:53;;;;;;;18.83;10.38;;;;;;;11.43;36.48;101479.22;5055247;28;20039;-64
2022/03/11 07:50:20;;;;;;;16.70;10.60;;;;;;;11.53;36.36;101471.41;5054313;28;20114;-64
2022/03/11 07:52:47;;;;;;;14.20;10.05;;;;;;;11.62;36.21;101483.41;5055340;28;20052;-63
2022/03/11 07:55:14;;;;;;;16.92;11.05;;;;;;;11.71;36.22;101474.72;5054754;28;20083;-64
2022/03/11 07:57:40;;;;;;;17.00;10.57;;;;;;;11.78;35.95;101473.38;5055055;28;20380;-63
2022/03/11 08:00:08;;;;;;;15.38;9.90;;;;;;;11.86;36.02;101470.19;5054890;28;20128;-64
2022/03/11 08:02:41;;;;;;;14.77;10.27;;;;;;;11.95;35.93;101467.78;5037282;28;20037;-64
2022/03/11 08:05:17;;;;;;;13.65;10.55;;;;;;;12.08;35.91;101468.66;5054962;28;20045;-64
2022/03/11 08:07:48;;;;;;;16.17;10.45;;;;;;;12.18;35.54;101462.66;5054152;28;20163;-64
2022/03/11 08:10:19;;;;;;;15.18;10.30;;;;;;;12.31;35.69;101464.41;5054442;28;20560;-63
2022/03/11 08:12:46;;;;;;;17.25;11.27;;;;;;;12.43;35.55;101473.47;5054950;28;20057;-64
2022/03/11 08:15:12;;;;;;;17.83;11.15;;;;;;;12.53;35.49;101473.72;5054750;28;20045;-63
2022/03/11 08:17:40;;;;;;;15.25;10.80;;;;;;;12.64;35.46;101455.00;5054704;28;20119;-67
2022/03/11 08:20:09;;;;;;;18.85;10.43;;;;;;;12.71;35.11;101446.38;5054792;28;20136;-67
2022/03/11 08:22:36;;;;;;;16.80;10.70;;;;;;;12.80;35.09;101454.78;5054456;28;20049;-68
2022/03/11 08:25:15;;;;;;;17.98;12.05;;;;;;;12.89;35.14;101446.03;5054286;28;20051;-66
2022/03/11 08:27:42;;;;;;;20.70;12.38;;;;;;;12.97;35.02;101436.44;5053632;28;20045;-66
2022/03/11 08:30:10;;;;;;;17.20;10.60;;;;;;;13.05;35.04;101443.97;5054291;28;20048;-66
2022/03/11 08:32:38;;;;;;;16.77;11.27;;;;;;;13.10;34.83;101447.19;5054728;28;20119;-67
2022/03/11 08:35:07;;;;;;;15.65;11.27;;;;;;;13.18;34.55;101436.75;5054785;28;20067;-67
2022/03/11 08:37:38;;;;;;;16.30;10.45;;;;;;;13.28;34.59;101429.72;5053934;28;20448;-67
2022/03/11 08:40:06;;;;;;;17.67;11.50;;;;;;;13.38;34.56;101431.72;5054035;28;20052;-67
2022/03/11 08:42:34;;;;;;;18.02;11.07;;;;;;;13.46;34.37;101423.97;5054335;28;20548;-67
2022/03/11 08:45:02;;;;;;;17.17;11.73;;;;;;;13.54;34.46;101425.13;5054318;28;20091;-67
2022/03/11 08:47:29;;;;;;;18.85;11.82;;;;;;;13.67;34.56;101423.22;5054327;28;20379;-67
2022/03/11 08:49:56;;;;;;;14.82;11.50;;;;;;;13.82;34.31;101423.91;5053848;28;20075;-67
2022/03/11 08:52:26;;;;;;;18.83;11.75;;;;;;;13.93;34.19;101410.44;5054075;28;20075;-67
2022/03/11 08:54:55;;;;;;;19.83;11.98;;;;;;;14.04;34.19;101417.72;5054119;28;20103;-67
2022/03/11 08:57:22;;;;;;;19.73;12.40;;;;;;;14.13;34.00;101416.19;5054095;28;20051;-68
2022/03/11 08:59:49;;;;;;;21.60;12.07;;;;;;;14.21;34.08;101416.47;5052805;28;20049;-67
2022/03/11 09:02:17;;;;;;;21.40;12.18;;;;;;;14.30;33.93;101410.34;5036240;28;20124;-67
2022/03/11 09:04:45;;;;;;;19.52;12.07;;;;;;;14.39;33.99;101417.75;5053862;28;20049;-67
2022/03/11 09:07:12;;;;;;;47.88;13.75;;;;;;;14.42;33.70;101417.53;5053426;28;20072;-69
2022/03/11 09:09:40;;;;;;;22.75;12.00;;;;;;;14.45;33.45;101406.47;5034793;28;20041;-68
2022/03/11 09:12:08;;;;;;;19.75;12.32;;;;;;;14.47;33.39;101407.22;5053795;28;20080;-67
2022/03/11 09:14:34;;;;;;;19.05;12.18;;;;;;;14.50;33.61;101414.22;5053246;28;20029;-68
2022/03/11 09:17:01;;;;;;;19.02;11.20;;;;;;;14.57;33.57;101410.94;5053045;28;20108;-65
2022/03/11 09:19:28;;;;;;;19.25;12.07;;;;;;;14.62;33.43;101413.25;5053524;28;20456;-67
2022/03/11 09:21:55;;;;;;;15.40;11.75;;;;;;;14.66;33.53;101398.53;5053486;28;20102;-65
2022/03/11 09:24:21;;;;;;;25.02;12.93;;;;;;;14.73;33.47;101398.88;5053278;28;20589;-66
2022/03/11 09:26:58;;;;;;;20.20;11.90;;;;;;;14.86;33.21;101411.34;5053764;28;20044;-66
2022/03/11 09:29:28;;;;;;;22.33;13.18;;;;;;;14.94;33.13;101402.63;5035405;28;20091;-66
2022/03/11 09:31:56;;;;;;;18.67;12.25;;;;;;;14.99;33.19;101405.81;5053236;28;20486;-66
2022/03/11 09:34:24;;;;;;;20.10;12.40;;;;;;;15.05;33.18;101405.31;5053233;28;20084;-66
2022/03/11 09:36:52;;;;;;;19.52;12.73;;;;;;;15.11;32.98;101390.44;5053567;28;20128;-66
2022/03/11 09:39:20;;;;;;;19.45;12.45;;;;;;;15.17;32.76;101390.78;5052460;28;20053;-67
2022/03/11 09:41:48;;;;;;;15.98;12.13;;;;;;;15.24;32.86;101383.88;5053112;28;20586;-66
2022/03/11 09:44:16;;;;;;;18.63;12.68;;;;;;;15.34;32.72;101383.97;5053154;28;20044;-67
2022/03/11 09:46:43;;;;;;;20.33;12.32;;;;;;;15.44;32.98;101394.91;5053164;28;20391;-66
2022/03/11 09:49:15;;;;;;;21.00;13.32;;;;;;;15.52;32.59;101387.00;5052903;28;20475;-66
2022/03/11 09:51:42;;;;;;;19.05;12.15;;;;;;;15.58;32.81;101389.25;5035459;28;20041;-66
2022/03/11 09:54:10;;;;;;;22.27;13.02;;;;;;;15.67;32.58;101382.22;5035042;28;20487;-66
2022/03/11 09:56:39;;;;;;;20.27;13.10;;;;;;;15.72;32.64;101388.97;5052868;28;20048;-66
2022/03/11 09:59:08;;;;;;;18.35;12.40;;;;;;;15.77;32.58;101381.31;5052917;28;20119;-66
2022/03/11 10:01:39;;;;;;;17.40;12.48;;;;;;;15.83;32.40;101378.09;5053105;28;20052;-67
2022/03/11 10:04:08;;;;;;;18.95;12.70;;;;;;;15.91;32.40;101380.16;5053148;28;20059;-68
2022/03/11 10:06:40;;;;;;;17.60;12.52;;;;;;;15.98;32.15;101367.81;5052787;28;20041;-66
2022/03/11 10:09:30;;;;;;;16.88;12.00;;;;;;;16.07;32.15;101361.59;5035255;28;20537;-66
2022/03/11 10:11:57;;;;;;;18.23;13.15;;;;;;;16.17;32.12;101361.66;5033321;28;20076;-67
2022/03/11 10:14:42;;;;;;;20.17;13.27;;;;;;;16.27;31.96;101359.00;5032907;28;20559;-67
2022/03/11 10:17:19;;;;;;;18.48;12.85;;;;;;;16.36;31.99;101356.38;5033116;28;20099;-67
2022/03/11 10:20:04;;;;;;;21.40;14.02;;;;;;;16.44;31.60;101356.56;5032817;28;20053;-67
2022/03/11 10:22:34;;;;;;;18.13;12.30;;;;;;;16.52;31.63;101345.91;5013557;28;20046;-66
2022/03/11 10:25:17;;;;;;;17.40;12.82;;;;;;;16.64;31.63;101346.69;5013371;28;20059;-66
2022/03/11 10:28:03;;;;;;;21.35;13.23;;;;;;;16.74;31.81;101347.63;5013441;28;20455;-66
2022/03/11 10:30:34;;;;;;;17.17;12.60;;;;;;;16.84;31.65;101350.38;5013176;28;20412;-66
2022/03/11 10:33:04;;;;;;;16.75;11.73;;;;;;;16.89;31.51;101342.66;5030136;28;20056;-66
2022/03/11 10:35:43;;;;;;;16.92;12.95;;;;;;;16.93;31.18;101333.25;5033012;28;20068;-66
2022/03/11 10:38:13;;;;;;;20.50;12.40;;;;;;;17.00;31.21;101339.00;5032730;28;20072;-66
2022/03/11 10:40:50;;;;;;;16.88;12.52;;;;;;;17.06;31.37;101333.88;5033197;28;20240;-67
2022/03/11 10:43:19;;;;;;;21.02;13.75;;;;;;;17.14;30.95;101330.47;5032717;28;20587;-67
2022/03/11 10:46:06;;;;;;;19.27;12.95;;;;;;;17.22;30.84;101327.06;5033128;28;20073;-66
2022/03/11 10:48:53;;;;;;;20.17;12.40;;;;;;;17.27;30.92;101330.22;5032721;28;20052;-66
2022/03/11 10:51:20;;;;;;;21.33;13.07;;;;;;;17.33;30.87;101332.38;5036119;28;20041;-65
2022/03/11 10:53:51;;;;;;;22.17;13.02;;;;;;;17.35;30.60;101328.53;5036864;28;20037;-66
2022/03/11 10:56:24;;;;;;;21.17;13.82;;;;;;;17.38;30.80;101322.81;5036597;28;20484;-66
2022/03/11 10:58:51;;;;;;;20.77;13.43;;;;;;;17.44;30.85;101314.09;5036196;28;20129;-67
2022/03/11 11:01:40;;;;;;;21.95;12.73;;;;;;;17.50;30.65;101322.66;5035961;28;20067;-67
2022/03/11 11:04:10;;;;;;;21.70;13.18;;;;;;;17.55;30.23;101321.25;5036382;28;20050;-66
2022/03/11 11:06:38;;;;;;;16.13;12.85;;;;;;;17.58;30.42;101304.66;5035840;28;20129;-66
2022/03/11 11:09:06;;;;;;;26.83;13.57;;;;;;;17.62;30.04;101305.22;5036232;28;20406;-66
2022/03/11 11:11:34;;;;;;;19.17;13.40;;;;;;;17.66;30.04;101303.94;5052499;28;20510;-65
2022/03/11 11:14:07;;;;;;;19.48;13.48;;;;;;;17.69;30.40;101320.84;5036279;28;20133;-65
2022/03/11 11:16:39;;;;;;;19.25;13.25;;;;;;;17.72;30.24;101308.84;5036062;28;20049;-65
2022/03/11 11:19:11;;;;;;;17.52;12.68;;;;;;;17.75;30.13;101301.25;5045515;28;20061;-65
2022/03/11 11:21:40;;;;;;;21.70;13.57;;;;;;;17.82;30.11;101300.69;5055883;28;20103;-65
2022/03/11 11:24:12;;;;;;;22.98;13.75;;;;;;;17.89;30.15;101296.41;5055803;28;20059;-66
2022/03/11 11:26:40;;;;;;;19.17;12.85;;;;;;;17.96;30.27;101292.09;5038538;28;20037;-66
2022/03/11 11:29:08;;;;;;;16.05;13.52;;;;;;;18.02;29.83;101286.09;5054756;28;20043;-66
2022/03/11 11:31:35;;;;;;;23.13;14.20;;;;;;;18.07;29.64;101275.63;5055896;28;20140;-66
2022/03/11 11:34:02;;;;;;;19.27;13.52;;;;;;;18.09;29.45;101263.59;5055712;28;20091;-66
2022/03/11 11:36:32;;;;;;;19.92;14.25;;;;;;;18.14;29.51;101271.31;5055894;28;20041;-66
2022/03/11 11:39:07;;;;;;;22.20;14.30;;;;;;;18.20;29.42;101269.88;5055297;28;20047;-66
2022/03/11 11:41:37;;;;;;;20.77;14.13;;;;;;;18.25;29.90;101257.53;5038373;28;20053;-66
2022/03/11 11:44:06;;;;;;;25.25;14.23;;;;;;;18.31;29.49;101267.81;5055520;28;20136;-66
2022/03/11 11:46:36;;;;;;;21.75;14.52;;;;;;;18.37;29.34;101274.53;5055783;28;20135;-66
2022/03/11 11:49:04;;;;;;;21.67;13.60;;;;;;;18.45;29.46;101268.34;5055408;28;20048;-66
2022/03/11 11:51:36;;;;;;;20.13;13.65;;;;;;;18.49;29.42;101253.44;5055037;28;20087;-67
2022/03/11 11:54:11;;;;;;;19.17;14.40;;;;;;;18.56;29.23;101252.69;5055204;28;20069;-66
2022/03/11 11:56:55;;;;;;;20.33;13.77;;;;;;;18.62;29.06;101238.53;5055292;28;20103;-66
2022/03/11 11:59:27;;;;;;;19.42;12.90;;;;;;;18.69;29.06;101233.34;5055121;28;20041;-66
2022/03/11 12:01:56;;;;;;;23.08;13.70;;;;;;;18.75;28.75;101235.47;5054284;28;20068;-67
2022/03/11 12:04:32;;;;;;;20.55;14.43;;;;;;;18.79;28.89;101220.53;5055150;28;20482;-66
2022/03/11 12:07:13;;;;;;;19.65;13.85;;;;;;;18.84;28.66;101225.53;5037476;28;20056;-66
2022/03/11 12:09:40;;;;;;;22.05;14.13;;;;;;;18.92;28.67;101220.16;5037104;28;20457;-66
2022/03/11 12:12:24;;;;;;;19.70;14.43;;;;;;;18.95;28.29;101206.25;5055207;28;20072;-66
2022/03/11 12:14:57;;;;;;;19.95;14.40;;;;;;;18.97;28.11;101205.09;5054832;28;20114;-66
2022/03/11 12:17:36;;;;;;;19.08;13.75;;;;;;;18.99;28.45;101185.88;5053824;28;20044;-66
2022/03/11 12:20:46;;;;;;;20.15;13.88;;;;;;;19.08;28.54;101200.41;5052494;28;20494;-66
2022/03/11 12:23:19;;;;;;;19.08;13.95;;;;;;;19.18;28.49;101193.03;5043048;28;20722;-66
2022/03/11 12:25:55;;;;;;;21.73;14.27;;;;;;;19.25;28.61;101185.94;5037054;28;20123;-66
2022/03/11 12:28:24;;;;;;;19.30;13.68;;;;;;;19.33;28.58;101175.16;5053965;28;20491;-67
2022/03/11 12:30:51;;;;;;;21.90;13.43;;;;;;;19.36;28.01;101172.13;5036289;28;20049;-66
2022/03/11 12:33:32;;;;;;;19.75;13.57;;;;;;;19.38;27.92;101182.84;5051270;28;20116;-67
2022/03/11 12:36:01;;;;;;;19.13;13.05;;;;;;;19.37;27.77;101179.28;5053825;28;20039;-66
2022/03/11 12:38:34;;;;;;;18.10;13.20;;;;;;;19.34;28.02;101179.59;5054166;28;20045;-66
2022/03/11 12:41:03;;;;;;;18.02;14.02;;;;;;;19.32;27.73;101171.56;5034583;28;20128;-66
2022/03/11 12:43:30;;;;;;;20.17;13.50;;;;;;;19.37;28.01;101165.66;5051376;28;20049;-65
2022/03/11 12:45:59;;;;;;;19.92;14.23;;;;;;;19.44;27.79;101164.00;5020190;28;20044;-66
2022/03/11 12:48:28;;;;;;;19.80;14.07;;;;;;;19.49;28.21;101160.81;5054007;28;20081;-67
2022/03/11 12:50:55;;;;;;;21.90;13.88;;;;;;;19.53;27.83;101148.59;5054022;28;20116;-66
2022/03/11 12:53:24;;;;;;;20.73;14.73;;;;;;;19.57;27.73;101139.09;5054123;28;20140;-66
2022/03/11 12:55:53;;;;;;;18.33;13.68;;;;;;;19.62;27.95;101129.44;5054513;28;20049;-66
2022/03/11 12:58:31;;;;;;;20.02;13.10;;;;;;;19.67;27.89;101134.41;5035997;28;20171;-65
2022/03/11 13:01:00;;;;;;;17.50;13.02;;;;;;;19.71;27.67;101129.47;5054094;28;20052;-65
2022/03/11 13:03:33;;;;;;;20.13;13.85;;;;;;;19.68;27.44;101117.88;5054258;28;20037;-66
2022/03/11 13:06:11;;;;;;;20.58;13.75;;;;;;;19.71;27.25;101121.31;5035549;28;20589;-67
2022/03/11 13:08:39;;;;;;;18.10;13.65;;;;;;;19.71;27.70;101130.34;5035817;28;20064;-66
2022/03/11 13:11:08;;;;;;;18.40;13.43;;;;;;;19.75;27.61;101119.97;5053546;28;20070;-66
2022/03/11 13:13:35;;;;;;;18.50;14.02;;;;;;;19.84;27.53;101129.91;5053813;28;20040;-66
2022/03/11 13:16:03;;;;;;;19.83;13.25;;;;;;;19.89;27.76;101120.22;5053974;28;20051;-66
2022/03/11 13:18:33;;;;;;;19.15;12.90;;;;;;;19.93;27.53;101115.28;5036143;28;20124;-66
2022/03/11 13:21:04;;;;;;;17.02;13.02;;;;;;;19.98;27.43;101110.19;5060742;28;20041;-66